Warning: A non-numeric value encountered in /var/www/orzepowice24.pl/weather28/wsFunctions.php on line 312

Warning: A non-numeric value encountered in /var/www/orzepowice24.pl/weather28/wsFunctions.php on line 312

Warning: A non-numeric value encountered in /var/www/orzepowice24.pl/weather28/wsFunctions.php on line 312

Warning: A non-numeric value encountered in /var/www/orzepowice24.pl/weather28/wsFunctions.php on line 267

Warning: A non-numeric value encountered in /var/www/orzepowice24.pl/weather28/wsFunctions.php on line 267

Warning: A non-numeric value encountered in /var/www/orzepowice24.pl/weather28/wsFunctions.php on line 267

Warning: A non-numeric value encountered in /var/www/orzepowice24.pl/weather28/wsFunctions.php on line 267
Amatorska stacja pogodowa orzepowice24.pl
Bogaty zestaw statystyk w zakładce „DOKŁADNE STATYSTYKI”

Visit our other weather sites:

Template documentation
and downloads

SZCZEGÓŁOWE STATYSTYKI

weather34-X5


You find our weather info also at:

UK Metoffice

WeatherCloud

Weather Underground

AWEKAS

WeatherlinkIP

Citizen Weather Observer Program (CWOP)

HAMweather, WeatherForYou, PWS Weather


No particular awareness of the weather is required.    There are no Weather-warnings

Raporty METAR w pobliżu


Warning: A non-numeric value encountered in /var/www/orzepowice24.pl/weather28/metar/metarDisplay.php on line 166

Warning: A non-numeric value encountered in /var/www/orzepowice24.pl/weather28/metar/wsMetarTxt.php on line 609

Warning: A non-numeric value encountered in /var/www/orzepowice24.pl/weather28/metar/metarDisplay.php on line 166

Warning: A non-numeric value encountered in /var/www/orzepowice24.pl/weather28/metar/metarDisplay.php on line 166
   
EPKT - Katowice
Zaktualizowano: 21-08-2018 23:00
Bezchmurne niebo  
Bezchmurne niebo  
   Wiatr: varies 1.9 km/h
Wiatr: varies 1.9 km/h
Temperatura: 13°C
Punkt rosy: 12°C
Wilgotność: 94%
Ciśnienie: 1021 hPa
Widoczność: Więcej niż 10 km
Szczegóły dotyczące chmur: Bezchmurne niebo
EPKT 212100Z VRB01KT CAVOK 13/12 Q1021
EPKK - Kraków
Zaktualizowano: 21-08-2018 23:00
W większości pochmurnie  
W większości pochmurnie  
   Wiatr: varies 1.9 km/h
Wiatr: varies 1.9 km/h
Temperatura: 19°C
Punkt rosy: 15°C
Wilgotność: 78%
Ciśnienie: 1021 hPa
Zachmurzenie: W większości pochmurnie
Widoczność: Więcej niż 10 km
Szczegóły dotyczące chmur: W większości pochmurnie 5600 ft
EPKK 212100Z VRB01KT 9999 BKN056 19/15 Q1021
LKMT - Ostrava
Zaktualizowano: 21-08-2018 23:00
Bezchmurne niebo  
Bezchmurne niebo  
   Wiatr: NNE 5.6 km/h
Wiatr: NNE 5.6 km/h
Temperatura: 19°C
Punkt rosy: 13°C
Wilgotność: 68%
Ciśnienie: 1021 hPa
Widoczność: Więcej niż 10 km
Szczegóły dotyczące chmur: Bezchmurne niebo
LKMT 212100Z 03003KT CAVOK 19/13 Q1021 NOSIG
LZZI - Žilina
Zaktualizowano: 21-08-2018 23:00
Bezchmurne niebo  
Bezchmurne niebo  
   Wiatr: varies 1.9 km/h
Wiatr: varies 1.9 km/h
Temperatura: 18°C
Punkt rosy: 14°C
Wilgotność: 78%
Ciśnienie: 1020 hPa
Widoczność: Więcej niż 10 km
Szczegóły dotyczące chmur: Bezchmurne niebo
LZZI 212100Z VRB01KT CAVOK 18/14 Q1020
  

Skrypt opracowany przez  Saratoga-weather.org Dostosowany do szablonu przez  Weerstation Leuven